sensor_id;sensor_type;location;lat;lon;timestamp;pressure;altitude;pressure_sealevel;temperature;humidity
32298;BME280;18782;48.984;8.548;2024-03-02T00:00:57;98752.38;;;3.21;100.00
32298;BME280;18782;48.984;8.548;2024-03-02T00:03:25;98752.38;;;3.21;100.00
32298;BME280;18782;48.984;8.548;2024-03-02T00:05:53;98743.84;;;3.19;100.00
32298;BME280;18782;48.984;8.548;2024-03-02T00:08:23;98742.19;;;3.21;100.00
32298;BME280;18782;48.984;8.548;2024-03-02T00:10:57;98745.59;;;3.22;100.00
32298;BME280;18782;48.984;8.548;2024-03-02T00:13:25;98741.28;;;3.19;100.00
32298;BME280;18782;48.984;8.548;2024-03-02T00:15:55;98734.31;;;3.13;100.00
32298;BME280;18782;48.984;8.548;2024-03-02T00:18:26;98740.16;;;3.11;100.00
32298;BME280;18782;48.984;8.548;2024-03-02T00:20:54;98731.72;;;3.12;100.00
32298;BME280;18782;48.984;8.548;2024-03-02T00:23:24;98727.44;;;3.11;100.00
32298;BME280;18782;48.984;8.548;2024-03-02T00:25:53;98735.94;;;3.11;100.00
32298;BME280;18782;48.984;8.548;2024-03-02T00:28:23;98731.72;;;3.12;100.00
32298;BME280;18782;48.984;8.548;2024-03-02T00:30:56;98729.97;;;3.11;100.00
32298;BME280;18782;48.984;8.548;2024-03-02T00:33:27;98733.34;;;3.10;100.00
32298;BME280;18782;48.984;8.548;2024-03-02T00:35:55;98725.69;;;3.08;100.00
32298;BME280;18782;48.984;8.548;2024-03-02T00:38:23;98723.06;;;3.07;100.00
32298;BME280;18782;48.984;8.548;2024-03-02T00:40:51;98726.41;;;3.06;100.00
32298;BME280;18782;48.984;8.548;2024-03-02T00:43:41;98726.41;;;3.06;100.00
32298;BME280;18782;48.984;8.548;2024-03-02T00:46:15;98735.59;;;3.02;100.00
32298;BME280;18782;48.984;8.548;2024-03-02T00:48:54;98734.66;;;2.99;100.00
32298;BME280;18782;48.984;8.548;2024-03-02T00:51:23;98734.75;;;3.02;100.00
32298;BME280;18782;48.984;8.548;2024-03-02T00:53:52;98732.28;;;3.03;100.00
32298;BME280;18782;48.984;8.548;2024-03-02T00:56:22;98729.56;;;2.99;100.00
32298;BME280;18782;48.984;8.548;2024-03-02T00:58:50;98732.81;;;2.95;100.00
32298;BME280;18782;48.984;8.548;2024-03-02T01:01:20;98742.84;;;2.92;100.00
32298;BME280;18782;48.984;8.548;2024-03-02T01:03:49;98737.69;;;2.88;100.00
32298;BME280;18782;48.984;8.548;2024-03-02T01:06:17;98735.16;;;2.88;100.00
32298;BME280;18782;48.984;8.548;2024-03-02T01:08:45;98737.56;;;2.85;100.00
32298;BME280;18782;48.984;8.548;2024-03-02T01:11:16;98742.59;;;2.84;100.00
32298;BME280;18782;48.984;8.548;2024-03-02T01:13:45;98745.84;;;2.80;100.00
32298;BME280;18782;48.984;8.548;2024-03-02T01:16:13;98750.88;;;2.78;100.00
32298;BME280;18782;48.984;8.548;2024-03-02T01:18:43;98749.16;;;2.77;100.00
32298;BME280;18782;48.984;8.548;2024-03-02T01:21:11;98752.34;;;2.72;100.00
32298;BME280;18782;48.984;8.548;2024-03-02T01:23:39;98750.50;;;2.68;100.00
32298;BME280;18782;48.984;8.548;2024-03-02T01:26:07;98751.22;;;2.65;100.00
32298;BME280;18782;48.984;8.548;2024-03-02T01:28:34;98752.84;;;2.63;100.00
32298;BME280;18782;48.984;8.548;2024-03-02T01:31:02;98741.72;;;2.59;100.00
32298;BME280;18782;48.984;8.548;2024-03-02T01:33:30;98736.53;;;2.56;100.00
32298;BME280;18782;48.984;8.548;2024-03-02T01:35:59;98737.28;;;2.54;100.00
32298;BME280;18782;48.984;8.548;2024-03-02T01:38:27;98733.88;;;2.53;100.00
32298;BME280;18782;48.984;8.548;2024-03-02T01:40:55;98737.22;;;2.52;100.00
32298;BME280;18782;48.984;8.548;2024-03-02T01:43:23;98726.13;;;2.50;100.00
32298;BME280;18782;48.984;8.548;2024-03-02T01:45:50;98727.81;;;2.50;100.00
32298;BME280;18782;48.984;8.548;2024-03-02T01:48:19;98721.81;;;2.48;100.00
32298;BME280;18782;48.984;8.548;2024-03-02T01:50:47;98715.56;;;2.40;100.00
32298;BME280;18782;48.984;8.548;2024-03-02T01:53:16;98728.19;;;2.37;100.00
32298;BME280;18782;48.984;8.548;2024-03-02T01:55:43;98728.88;;;2.32;100.00
32298;BME280;18782;48.984;8.548;2024-03-02T01:58:11;98728.88;;;2.32;100.00
32298;BME280;18782;48.984;8.548;2024-03-02T02:00:39;98725.41;;;2.30;100.00
32298;BME280;18782;48.984;8.548;2024-03-02T02:03:07;98718.56;;;2.29;100.00
32298;BME280;18782;48.984;8.548;2024-03-02T02:05:35;98716.97;;;2.31;100.00
32298;BME280;18782;48.984;8.548;2024-03-02T02:08:03;98708.44;;;2.29;100.00
32298;BME280;18782;48.984;8.548;2024-03-02T02:10:32;98716.84;;;2.28;100.00
32298;BME280;18782;48.984;8.548;2024-03-02T02:12:59;98713.50;;;2.29;100.00
32298;BME280;18782;48.984;8.548;2024-03-02T02:15:28;98715.13;;;2.27;100.00
32298;BME280;18782;48.984;8.548;2024-03-02T02:17:58;98707.34;;;2.23;100.00
32298;BME280;18782;48.984;8.548;2024-03-02T02:20:26;98704.75;;;2.21;100.00
32298;BME280;18782;48.984;8.548;2024-03-02T02:22:56;98706.34;;;2.19;100.00
32298;BME280;18782;48.984;8.548;2024-03-02T02:25:24;98711.34;;;2.16;100.00
32298;BME280;18782;48.984;8.548;2024-03-02T02:27:52;98706.25;;;2.16;100.00
32298;BME280;18782;48.984;8.548;2024-03-02T02:30:21;98706.25;;;2.16;100.00
32298;BME280;18782;48.984;8.548;2024-03-02T02:32:49;98696.09;;;2.16;100.00
32298;BME280;18782;48.984;8.548;2024-03-02T02:35:17;98700.13;;;2.11;100.00
32298;BME280;18782;48.984;8.548;2024-03-02T02:37:46;98694.19;;;2.11;100.00
32298;BME280;18782;48.984;8.548;2024-03-02T02:40:16;98690.66;;;2.07;100.00
32298;BME280;18782;48.984;8.548;2024-03-02T02:42:45;98685.63;;;2.08;100.00
32298;BME280;18782;48.984;8.548;2024-03-02T02:45:13;98686.44;;;2.07;100.00
32298;BME280;18782;48.984;8.548;2024-03-02T02:47:42;98687.22;;;2.05;100.00
32298;BME280;18782;48.984;8.548;2024-03-02T02:50:10;98684.59;;;2.03;100.00
32298;BME280;18782;48.984;8.548;2024-03-02T02:52:40;98682.00;;;2.02;100.00
32298;BME280;18782;48.984;8.548;2024-03-02T02:55:09;98675.09;;;1.98;100.00
32298;BME280;18782;48.984;8.548;2024-03-02T02:57:40;98675.09;;;1.98;100.00
32298;BME280;18782;48.984;8.548;2024-03-02T03:00:11;98675.00;;;1.95;100.00
32298;BME280;18782;48.984;8.548;2024-03-02T03:02:41;98675.84;;;1.95;100.00
32298;BME280;18782;48.984;8.548;2024-03-02T03:05:11;98676.59;;;1.93;100.00
32298;BME280;18782;48.984;8.548;2024-03-02T03:07:39;98674.00;;;1.91;100.00
32298;BME280;18782;48.984;8.548;2024-03-02T03:10:07;98677.34;;;1.90;100.00
32298;BME280;18782;48.984;8.548;2024-03-02T03:12:35;98669.69;;;1.89;100.00
32298;BME280;18782;48.984;8.548;2024-03-02T03:15:06;98676.34;;;1.87;100.00
32298;BME280;18782;48.984;8.548;2024-03-02T03:17:34;98673.00;;;1.88;100.00
32298;BME280;18782;48.984;8.548;2024-03-02T03:20:04;98673.00;;;1.88;100.00
32298;BME280;18782;48.984;8.548;2024-03-02T03:22:36;98675.53;;;1.88;100.00
32298;BME280;18782;48.984;8.548;2024-03-02T03:25:04;98676.34;;;1.87;100.00
32298;BME280;18782;48.984;8.548;2024-03-02T03:27:33;98662.81;;;1.86;100.00
32298;BME280;18782;48.984;8.548;2024-03-02T03:30:01;98663.56;;;1.83;100.00
32298;BME280;18782;48.984;8.548;2024-03-02T03:32:30;98661.03;;;1.83;100.00
32298;BME280;18782;48.984;8.548;2024-03-02T03:34:58;98660.91;;;1.80;100.00
32298;BME280;18782;48.984;8.548;2024-03-02T03:37:25;98664.13;;;1.76;100.00
32298;BME280;18782;48.984;8.548;2024-03-02T03:39:58;98669.81;;;1.71;100.00
32298;BME280;18782;48.984;8.548;2024-03-02T03:42:27;98659.69;;;1.71;100.00
32298;BME280;18782;48.984;8.548;2024-03-02T03:44:55;98665.50;;;1.68;100.00
32298;BME280;18782;48.984;8.548;2024-03-02T03:47:22;98654.56;;;1.69;100.00
32298;BME280;18782;48.984;8.548;2024-03-02T03:49:51;98652.16;;;1.72;100.00
32298;BME280;18782;48.984;8.548;2024-03-02T03:52:19;98658.72;;;1.67;100.00
32298;BME280;18782;48.984;8.548;2024-03-02T03:54:47;98653.66;;;1.67;100.00
32298;BME280;18782;48.984;8.548;2024-03-02T03:57:15;98662.84;;;1.65;100.00
32298;BME280;18782;48.984;8.548;2024-03-02T03:59:43;98663.66;;;1.64;100.00
32298;BME280;18782;48.984;8.548;2024-03-02T04:02:11;98665.38;;;1.65;100.00
32298;BME280;18782;48.984;8.548;2024-03-02T04:04:39;98658.59;;;1.64;100.00
32298;BME280;18782;48.984;8.548;2024-03-02T04:07:08;98670.44;;;1.65;100.00
32298;BME280;18782;48.984;8.548;2024-03-02T04:09:35;98663.53;;;1.61;100.00
32298;BME280;18782;48.984;8.548;2024-03-02T04:12:04;98671.13;;;1.61;100.00
32298;BME280;18782;48.984;8.548;2024-03-02T04:14:31;98664.28;;;1.59;100.00
32298;BME280;18782;48.984;8.548;2024-03-02T04:16:59;98660.81;;;1.56;100.00
32298;BME280;18782;48.984;8.548;2024-03-02T04:19:27;98656.63;;;1.57;100.00
32298;BME280;18782;48.984;8.548;2024-03-02T04:21:54;98665.00;;;1.56;100.00
32298;BME280;18782;48.984;8.548;2024-03-02T04:24:26;98665.00;;;1.56;100.00
32298;BME280;18782;48.984;8.548;2024-03-02T04:26:54;98667.44;;;1.53;100.00
32298;BME280;18782;48.984;8.548;2024-03-02T04:29:21;98671.72;;;1.54;100.00
32298;BME280;18782;48.984;8.548;2024-03-02T04:31:49;98672.38;;;1.50;100.00
32298;BME280;18782;48.984;8.548;2024-03-02T04:34:17;98674.06;;;1.49;100.00
32298;BME280;18782;48.984;8.548;2024-03-02T04:36:44;98668.88;;;1.46;100.00
32298;BME280;18782;48.984;8.548;2024-03-02T04:39:12;98669.75;;;1.47;100.00
32298;BME280;18782;48.984;8.548;2024-03-02T04:41:41;98671.34;;;1.45;100.00
32298;BME280;18782;48.984;8.548;2024-03-02T04:44:09;98673.88;;;1.45;100.00
32298;BME280;18782;48.984;8.548;2024-03-02T04:46:36;98673.81;;;1.43;100.00
32298;BME280;18782;48.984;8.548;2024-03-02T04:49:04;98670.28;;;1.40;100.00
32298;BME280;18782;48.984;8.548;2024-03-02T04:51:32;98675.31;;;1.38;100.00
32298;BME280;18782;48.984;8.548;2024-03-02T04:54:00;98681.19;;;1.37;100.00
32298;BME280;18782;48.984;8.548;2024-03-02T04:56:28;98671.84;;;1.36;100.00
32298;BME280;18782;48.984;8.548;2024-03-02T04:59:12;98679.38;;;1.35;100.00
32298;BME280;18782;48.984;8.548;2024-03-02T05:01:39;98687.78;;;1.34;100.00
32298;BME280;18782;48.984;8.548;2024-03-02T05:04:07;98692.63;;;1.27;100.00
32298;BME280;18782;48.984;8.548;2024-03-02T05:06:35;98695.72;;;1.20;100.00
32298;BME280;18782;48.984;8.548;2024-03-02T05:09:02;98698.25;;;1.20;100.00
32298;BME280;18782;48.984;8.548;2024-03-02T05:11:30;98706.63;;;1.19;100.00
32298;BME280;18782;48.984;8.548;2024-03-02T05:14:27;98707.44;;;1.18;100.00
32298;BME280;18782;48.984;8.548;2024-03-02T05:16:55;98707.34;;;1.15;100.00
32298;BME280;18782;48.984;8.548;2024-03-02T05:19:22;98714.03;;;1.15;100.00
32298;BME280;18782;48.984;8.548;2024-03-02T05:21:51;98715.47;;;1.08;100.00
32298;BME280;18782;48.984;8.548;2024-03-02T05:24:19;98711.34;;;1.10;100.00
32298;BME280;18782;48.984;8.548;2024-03-02T05:26:47;98718.88;;;1.09;100.00
32298;BME280;18782;48.984;8.548;2024-03-02T05:29:15;98720.53;;;1.08;100.00
32298;BME280;18782;48.984;8.548;2024-03-02T05:31:44;98723.06;;;1.08;100.00
32298;BME280;18782;48.984;8.548;2024-03-02T05:34:12;98714.59;;;1.08;100.00
32298;BME280;18782;48.984;8.548;2024-03-02T05:36:39;98710.28;;;1.05;100.00
32298;BME280;18782;48.984;8.548;2024-03-02T05:39:07;98714.66;;;1.09;100.00
32298;BME280;18782;48.984;8.548;2024-03-02T05:41:36;98708.81;;;1.10;100.00
32298;BME280;18782;48.984;8.548;2024-03-02T05:44:04;98710.53;;;1.11;100.00
32298;BME280;18782;48.984;8.548;2024-03-02T05:46:32;98708.72;;;1.09;100.00
32298;BME280;18782;48.984;8.548;2024-03-02T05:49:01;98709.28;;;1.01;100.00
32298;BME280;18782;48.984;8.548;2024-03-02T05:51:30;98714.09;;;0.95;100.00
32298;BME280;18782;48.984;8.548;2024-03-02T05:53:57;98705.53;;;0.93;100.00
32298;BME280;18782;48.984;8.548;2024-03-02T05:56:25;98708.16;;;0.95;100.00
32298;BME280;18782;48.984;8.548;2024-03-02T05:58:53;98704.81;;;0.96;100.00
32298;BME280;18782;48.984;8.548;2024-03-02T06:01:33;98708.03;;;0.92;100.00
32298;BME280;18782;48.984;8.548;2024-03-02T06:04:03;98709.69;;;0.91;100.00
32298;BME280;18782;48.984;8.548;2024-03-02T06:06:30;98702.81;;;0.89;100.00
32298;BME280;18782;48.984;8.548;2024-03-02T06:08:59;98698.66;;;0.89;100.00
32298;BME280;18782;48.984;8.548;2024-03-02T06:11:26;98703.50;;;0.85;100.00
32298;BME280;18782;48.984;8.548;2024-03-02T06:13:54;98709.38;;;0.84;100.00
32298;BME280;18782;48.984;8.548;2024-03-02T06:16:22;98706.03;;;0.85;100.00
32298;BME280;18782;48.984;8.548;2024-03-02T06:18:50;98710.34;;;0.87;100.00
32298;BME280;18782;48.984;8.548;2024-03-02T06:21:19;98718.00;;;0.89;100.00
32298;BME280;18782;48.984;8.548;2024-03-02T06:23:47;98700.28;;;0.89;100.00
32298;BME280;18782;48.984;8.548;2024-03-02T06:26:14;98703.09;;;0.95;100.00
32298;BME280;18782;48.984;8.548;2024-03-02T06:28:42;98704.69;;;0.93;100.00
32298;BME280;18782;48.984;8.548;2024-03-02T06:31:10;98711.47;;;0.94;100.00
32298;BME280;18782;48.984;8.548;2024-03-02T06:33:38;98710.00;;;0.99;100.00
32298;BME280;18782;48.984;8.548;2024-03-02T06:36:06;98713.69;;;1.06;100.00
32298;BME280;18782;48.984;8.548;2024-03-02T06:38:36;98719.66;;;1.08;100.00
32298;BME280;18782;48.984;8.548;2024-03-02T06:41:07;98721.75;;;1.16;100.00
32298;BME280;18782;48.984;8.548;2024-03-02T06:43:35;98721.75;;;1.16;100.00
32298;BME280;18782;48.984;8.548;2024-03-02T06:46:04;98723.50;;;1.19;100.00
32298;BME280;18782;48.984;8.548;2024-03-02T06:48:35;98719.44;;;1.22;100.00
32298;BME280;18782;48.984;8.548;2024-03-02T06:51:03;98720.38;;;1.24;100.00
32298;BME280;18782;48.984;8.548;2024-03-02T06:53:31;98727.09;;;1.24;100.00
32298;BME280;18782;48.984;8.548;2024-03-02T06:56:01;98726.19;;;1.22;100.00
32298;BME280;18782;48.984;8.548;2024-03-02T06:58:29;98721.56;;;1.33;100.00
32298;BME280;18782;48.984;8.548;2024-03-02T07:00:57;98720.94;;;1.38;100.00
32298;BME280;18782;48.984;8.548;2024-03-02T07:03:24;98720.31;;;1.44;100.00
32298;BME280;18782;48.984;8.548;2024-03-02T07:05:52;98727.13;;;1.45;100.00
32298;BME280;18782;48.984;8.548;2024-03-02T07:08:20;98725.63;;;1.50;100.00
32298;BME280;18782;48.984;8.548;2024-03-02T07:10:47;98720.19;;;1.62;100.00
32298;BME280;18782;48.984;8.548;2024-03-02T07:13:17;98721.19;;;1.65;100.00
32298;BME280;18782;48.984;8.548;2024-03-02T07:15:44;98731.47;;;1.68;100.00
32298;BME280;18782;48.984;8.548;2024-03-02T07:18:32;98728.72;;;1.85;100.00
32298;BME280;18782;48.984;8.548;2024-03-02T07:21:01;98721.13;;;1.85;100.00
32298;BME280;18782;48.984;8.548;2024-03-02T07:23:29;98722.97;;;1.89;100.00
32298;BME280;18782;48.984;8.548;2024-03-02T07:25:58;98724.03;;;1.94;100.00
32298;BME280;18782;48.984;8.548;2024-03-02T07:28:31;98727.81;;;2.05;100.00
32298;BME280;18782;48.984;8.548;2024-03-02T07:30:59;98731.19;;;2.26;100.00
32298;BME280;18782;48.984;8.548;2024-03-02T07:33:28;98731.56;;;2.37;100.00
32298;BME280;18782;48.984;8.548;2024-03-02T07:35:56;98732.50;;;2.39;100.00
32298;BME280;18782;48.984;8.548;2024-03-02T07:38:28;98732.72;;;2.45;100.00
32298;BME280;18782;48.984;8.548;2024-03-02T07:40:56;98733.69;;;2.49;100.00
32298;BME280;18782;48.984;8.548;2024-03-02T07:43:23;98736.09;;;2.68;100.00
32298;BME280;18782;48.984;8.548;2024-03-02T07:45:52;98732.28;;;2.79;100.00
32298;BME280;18782;48.984;8.548;2024-03-02T07:48:20;98736.19;;;2.94;100.00
32298;BME280;18782;48.984;8.548;2024-03-02T07:50:48;98742.28;;;2.99;100.00
32298;BME280;18782;48.984;8.548;2024-03-02T07:53:16;98729.78;;;3.05;100.00
32298;BME280;18782;48.984;8.548;2024-03-02T07:55:44;98736.72;;;3.09;100.00
32298;BME280;18782;48.984;8.548;2024-03-02T07:58:11;98731.88;;;3.17;100.00
32298;BME280;18782;48.984;8.548;2024-03-02T08:00:39;98723.78;;;3.28;100.00
32298;BME280;18782;48.984;8.548;2024-03-02T08:03:08;98726.75;;;3.66;100.00
32298;BME280;18782;48.984;8.548;2024-03-02T08:05:38;98724.72;;;3.83;100.00
32298;BME280;18782;48.984;8.548;2024-03-02T08:08:06;98727.69;;;3.97;100.00
32298;BME280;18782;48.984;8.548;2024-03-02T08:10:33;98728.75;;;4.03;100.00
32298;BME280;18782;48.984;8.548;2024-03-02T08:13:02;98728.16;;;4.12;100.00
32298;BME280;18782;48.984;8.548;2024-03-02T08:15:30;98726.72;;;4.20;100.00
32298;BME280;18782;48.984;8.548;2024-03-02T08:17:57;98732.94;;;4.30;100.00
32298;BME280;18782;48.984;8.548;2024-03-02T08:20:27;98732.53;;;4.44;100.00
32298;BME280;18782;48.984;8.548;2024-03-02T08:22:55;98724.41;;;4.58;100.00
32298;BME280;18782;48.984;8.548;2024-03-02T08:25:22;98719.69;;;4.70;100.00
32298;BME280;18782;48.984;8.548;2024-03-02T08:27:50;98717.38;;;4.79;100.00
32298;BME280;18782;48.984;8.548;2024-03-02T08:30:18;98717.06;;;4.98;100.00
32298;BME280;18782;48.984;8.548;2024-03-02T08:32:45;98715.66;;;5.10;100.00
32298;BME280;18782;48.984;8.548;2024-03-02T08:35:14;98719.34;;;5.21;100.00
32298;BME280;18782;48.984;8.548;2024-03-02T08:37:43;98711.25;;;5.37;100.00
32298;BME280;18782;48.984;8.548;2024-03-02T08:40:11;98710.00;;;5.55;100.00
32298;BME280;18782;48.984;8.548;2024-03-02T08:42:43;98710.47;;;5.74;100.00
32298;BME280;18782;48.984;8.548;2024-03-02T08:45:12;98711.97;;;6.01;100.00
32298;BME280;18782;48.984;8.548;2024-03-02T08:47:40;98714.91;;;6.18;100.00
32298;BME280;18782;48.984;8.548;2024-03-02T08:50:08;98720.47;;;6.39;100.00
32298;BME280;18782;48.984;8.548;2024-03-02T08:52:36;98723.56;;;6.65;100.00
32298;BME280;18782;48.984;8.548;2024-03-02T08:55:05;98718.31;;;7.01;100.00
32298;BME280;18782;48.984;8.548;2024-03-02T08:57:33;98723.75;;;7.20;100.00
32298;BME280;18782;48.984;8.548;2024-03-02T09:00:01;98714.66;;;7.36;100.00
32298;BME280;18782;48.984;8.548;2024-03-02T09:02:29;98714.13;;;7.53;100.00
32298;BME280;18782;48.984;8.548;2024-03-02T09:04:57;98709.34;;;7.75;100.00
32298;BME280;18782;48.984;8.548;2024-03-02T09:07:25;98706.56;;;8.16;100.00
32298;BME280;18782;48.984;8.548;2024-03-02T09:09:52;98700.56;;;8.82;100.00
32298;BME280;18782;48.984;8.548;2024-03-02T09:12:22;98711.06;;;8.99;100.00
32298;BME280;18782;48.984;8.548;2024-03-02T09:14:49;98704.31;;;9.11;93.66
32298;BME280;18782;48.984;8.548;2024-03-02T09:17:17;98702.91;;;9.44;94.82
32298;BME280;18782;48.984;8.548;2024-03-02T09:19:44;98692.81;;;9.65;93.67
32298;BME280;18782;48.984;8.548;2024-03-02T09:22:12;98682.00;;;10.11;94.28
32298;BME280;18782;48.984;8.548;2024-03-02T09:24:40;98686.50;;;10.41;93.93
32298;BME280;18782;48.984;8.548;2024-03-02T09:27:08;98683.13;;;10.54;87.98
32298;BME280;18782;48.984;8.548;2024-03-02T09:29:37;98685.81;;;10.82;88.35
32298;BME280;18782;48.984;8.548;2024-03-02T09:32:07;98682.41;;;10.92;85.23
32298;BME280;18782;48.984;8.548;2024-03-02T09:34:35;98687.59;;;11.07;81.07
32298;BME280;18782;48.984;8.548;2024-03-02T09:37:03;98691.91;;;11.19;78.61
32298;BME280;18782;48.984;8.548;2024-03-02T09:39:31;98694.53;;;11.57;78.48
32298;BME280;18782;48.984;8.548;2024-03-02T09:41:59;98697.13;;;11.97;81.72
32298;BME280;18782;48.984;8.548;2024-03-02T09:44:27;98693.69;;;12.16;80.77
32298;BME280;18782;48.984;8.548;2024-03-02T09:46:57;98691.00;;;12.44;79.62
32298;BME280;18782;48.984;8.548;2024-03-02T09:49:24;98688.31;;;12.71;75.86
32298;BME280;18782;48.984;8.548;2024-03-02T09:51:52;98684.81;;;12.88;70.38
32298;BME280;18782;48.984;8.548;2024-03-02T09:54:20;98689.94;;;12.94;69.91
32298;BME280;18782;48.984;8.548;2024-03-02T09:56:50;98680.34;;;13.16;72.60
32298;BME280;18782;48.984;8.548;2024-03-02T09:59:18;98676.75;;;13.41;73.41
32298;BME280;18782;48.984;8.548;2024-03-02T10:01:59;98677.53;;;13.54;70.36
32298;BME280;18782;48.984;8.548;2024-03-02T10:04:28;98680.78;;;13.77;64.71
32298;BME280;18782;48.984;8.548;2024-03-02T10:07:11;98685.91;;;13.83;60.53
32298;BME280;18782;48.984;8.548;2024-03-02T10:09:39;98677.09;;;14.03;63.88
32298;BME280;18782;48.984;8.548;2024-03-02T10:12:08;98682.19;;;14.12;61.18
32298;BME280;18782;48.984;8.548;2024-03-02T10:14:36;98682.00;;;14.29;60.05
32298;BME280;18782;48.984;8.548;2024-03-02T10:17:07;98684.53;;;14.33;59.04
32298;BME280;18782;48.984;8.548;2024-03-02T10:19:36;98674.78;;;14.60;56.97
32298;BME280;18782;48.984;8.548;2024-03-02T10:22:04;98680.03;;;14.54;57.54
32298;BME280;18782;48.984;8.548;2024-03-02T10:24:37;98680.91;;;14.53;62.43
32298;BME280;18782;48.984;8.548;2024-03-02T10:27:10;98674.56;;;14.78;62.15
32298;BME280;18782;48.984;8.548;2024-03-02T10:29:39;98668.19;;;15.01;61.13
32298;BME280;18782;48.984;8.548;2024-03-02T10:32:10;98669.69;;;15.17;63.04
32298;BME280;18782;48.984;8.548;2024-03-02T10:34:40;98670.44;;;15.25;61.16
32298;BME280;18782;48.984;8.548;2024-03-02T10:37:08;98668.38;;;15.47;60.96
32298;BME280;18782;48.984;8.548;2024-03-02T10:39:36;98666.31;;;15.69;60.52
32298;BME280;18782;48.984;8.548;2024-03-02T10:42:05;98672.28;;;15.74;55.11
32298;BME280;18782;48.984;8.548;2024-03-02T10:44:33;98669.69;;;15.74;53.53
32298;BME280;18782;48.984;8.548;2024-03-02T10:47:03;98657.13;;;15.48;54.74
32298;BME280;18782;48.984;8.548;2024-03-02T10:49:33;98664.88;;;15.50;56.30
32298;BME280;18782;48.984;8.548;2024-03-02T10:52:01;98655.31;;;15.53;57.92
32298;BME280;18782;48.984;8.548;2024-03-02T10:54:29;98645.34;;;15.81;59.69
32298;BME280;18782;48.984;8.548;2024-03-02T10:57:04;98646.13;;;15.86;55.38
32298;BME280;18782;48.984;8.548;2024-03-02T10:59:33;98640.09;;;15.86;55.37
32298;BME280;18782;48.984;8.548;2024-03-02T11:02:03;98636.72;;;15.82;57.72
32298;BME280;18782;48.984;8.548;2024-03-02T11:04:34;98634.63;;;16.03;56.75
32298;BME280;18782;48.984;8.548;2024-03-02T11:07:05;98622.31;;;16.11;55.45
32298;BME280;18782;48.984;8.548;2024-03-02T11:09:35;98631.66;;;16.21;55.68
32298;BME280;18782;48.984;8.548;2024-03-02T11:12:11;98623.88;;;16.21;55.58
32298;BME280;18782;48.984;8.548;2024-03-02T11:14:41;98621.16;;;16.27;54.95
32298;BME280;18782;48.984;8.548;2024-03-02T11:17:11;98612.59;;;16.24;55.60
32298;BME280;18782;48.984;8.548;2024-03-02T11:19:44;98612.88;;;16.52;55.65
32298;BME280;18782;48.984;8.548;2024-03-02T11:22:13;98607.94;;;16.80;53.74
32298;BME280;18782;48.984;8.548;2024-03-02T11:24:48;98606.56;;;16.63;53.96
32298;BME280;18782;48.984;8.548;2024-03-02T11:30:49;98599.13;;;16.47;53.68
32298;BME280;18782;48.984;8.548;2024-03-02T11:33:24;98605.59;;;16.67;54.35
32298;BME280;18782;48.984;8.548;2024-03-02T11:35:56;98588.63;;;16.93;53.77
32298;BME280;18782;48.984;8.548;2024-03-02T11:38:28;98583.59;;;17.21;53.60
32298;BME280;18782;48.984;8.548;2024-03-02T11:40:56;98587.59;;;17.36;51.92
32298;BME280;18782;48.984;8.548;2024-03-02T11:43:25;98579.69;;;17.74;51.78
32298;BME280;18782;48.984;8.548;2024-03-02T11:45:56;98587.28;;;18.15;51.37
32298;BME280;18782;48.984;8.548;2024-03-02T11:48:25;98576.31;;;18.63;50.53
32298;BME280;18782;48.984;8.548;2024-03-02T11:50:54;98578.94;;;18.92;47.80
32298;BME280;18782;48.984;8.548;2024-03-02T11:53:26;98570.72;;;19.31;47.24
32298;BME280;18782;48.984;8.548;2024-03-02T11:55:58;98572.63;;;19.26;44.62
32298;BME280;18782;48.984;8.548;2024-03-02T11:58:28;98564.91;;;18.96;44.95
32298;BME280;18782;48.984;8.548;2024-03-02T12:00:55;98560.03;;;18.56;45.37
32298;BME280;18782;48.984;8.548;2024-03-02T12:03:25;98554.03;;;18.52;47.24
32298;BME280;18782;48.984;8.548;2024-03-02T12:05:55;98553.16;;;18.83;45.53
32298;BME280;18782;48.984;8.548;2024-03-02T12:08:23;98542.44;;;19.19;46.00
32298;BME280;18782;48.984;8.548;2024-03-02T12:10:58;98541.78;;;19.65;43.65
32298;BME280;18782;48.984;8.548;2024-03-02T12:13:27;98550.94;;;19.50;43.41
32298;BME280;18782;48.984;8.548;2024-03-02T12:15:55;98543.06;;;19.78;44.11
32298;BME280;18782;48.984;8.548;2024-03-02T12:18:24;98533.25;;;20.08;42.26
32298;BME280;18782;48.984;8.548;2024-03-02T12:20:54;98536.34;;;20.43;42.10
32298;BME280;18782;48.984;8.548;2024-03-02T12:23:23;98534.84;;;21.03;41.68
32298;BME280;18782;48.984;8.548;2024-03-02T12:25:51;98527.75;;;21.49;39.46
32298;BME280;18782;48.984;8.548;2024-03-02T12:28:19;98528.91;;;22.03;39.26
32298;BME280;18782;48.984;8.548;2024-03-02T12:30:48;98524.00;;;22.35;37.76
32298;BME280;18782;48.984;8.548;2024-03-02T12:33:17;98523.97;;;22.73;37.92
32298;BME280;18782;48.984;8.548;2024-03-02T12:35:45;98529.16;;;23.10;36.56
32298;BME280;18782;48.984;8.548;2024-03-02T12:38:14;98525.50;;;23.49;35.25
32298;BME280;18782;48.984;8.548;2024-03-02T12:40:42;98530.25;;;23.58;34.22
32298;BME280;18782;48.984;8.548;2024-03-02T12:43:09;98526.25;;;23.86;34.21
32298;BME280;18782;48.984;8.548;2024-03-02T12:45:37;98520.41;;;23.81;34.32
32298;BME280;18782;48.984;8.548;2024-03-02T12:48:06;98523.06;;;23.62;33.93
32298;BME280;18782;48.984;8.548;2024-03-02T12:50:33;98518.00;;;23.76;33.82
32298;BME280;18782;48.984;8.548;2024-03-02T12:53:01;98517.50;;;24.18;33.26
32298;BME280;18782;48.984;8.548;2024-03-02T12:55:30;98511.56;;;24.15;31.83
32298;BME280;18782;48.984;8.548;2024-03-02T12:57:58;98512.22;;;23.35;32.66
32298;BME280;18782;48.984;8.548;2024-03-02T13:00:26;98506.63;;;23.41;33.63
32298;BME280;18782;48.984;8.548;2024-03-02T13:02:56;98504.34;;;24.03;32.55
32298;BME280;18782;48.984;8.548;2024-03-02T13:05:30;98506.19;;;23.50;32.45
32298;BME280;18782;48.984;8.548;2024-03-02T13:07:58;98497.22;;;23.72;31.51
32298;BME280;18782;48.984;8.548;2024-03-02T13:10:27;98487.88;;;23.99;32.05
32298;BME280;18782;48.984;8.548;2024-03-02T13:12:57;98475.91;;;23.26;31.84